createdAt,value
2023-03-20T00:01:19.934Z,101239.41
2023-03-20T00:03:47.875Z,101254.31
2023-03-20T00:06:17.618Z,101250.69
2023-03-20T00:08:46.734Z,101265.16
2023-03-20T00:11:30.410Z,101262.00
2023-03-20T00:14:00.019Z,101240.53
2023-03-20T00:16:33.510Z,101260.06
2023-03-20T00:19:01.982Z,101263.53
2023-03-20T00:21:29.832Z,101294.75
2023-03-20T00:23:57.705Z,101303.69
2023-03-20T00:26:29.786Z,101348.53
2023-03-20T00:28:57.794Z,101376.09
2023-03-20T00:31:27.792Z,101389.41
2023-03-20T00:33:59.010Z,101430.16
2023-03-20T00:36:27.102Z,101483.72
2023-03-20T00:38:56.382Z,101490.00
2023-03-20T00:41:26.949Z,101502.31
2023-03-20T00:43:57.778Z,101536.56
2023-03-20T00:46:26.013Z,101545.53
2023-03-20T00:48:54.350Z,101561.44
2023-03-20T00:51:23.490Z,101523.81
2023-03-20T00:53:51.220Z,101526.53
2023-03-20T00:56:32.464Z,101527.53
2023-03-20T00:59:01.404Z,101512.66
2023-03-20T01:01:30.164Z,101493.91
2023-03-20T01:03:57.934Z,101475.25
2023-03-20T01:06:28.873Z,101493.88
2023-03-20T01:08:57.741Z,101489.22
2023-03-20T01:11:26.028Z,101484.03
2023-03-20T01:13:53.840Z,101477.59
2023-03-20T01:16:24.181Z,101467.31
2023-03-20T01:18:53.028Z,101459.16
2023-03-20T01:21:21.799Z,101466.47
2023-03-20T01:23:51.272Z,101460.91
2023-03-20T01:26:28.280Z,101459.81
2023-03-20T01:28:56.029Z,101440.72
2023-03-20T01:31:23.798Z,101459.56
2023-03-20T01:33:51.551Z,101455.19
2023-03-20T01:36:22.379Z,101453.28
2023-03-20T01:38:57.195Z,101457.59
2023-03-20T01:41:27.095Z,101427.88
2023-03-20T01:43:54.967Z,101422.44
2023-03-20T01:46:26.419Z,101432.75
2023-03-20T01:49:07.028Z,101438.91
2023-03-20T01:51:36.190Z,101454.78
2023-03-20T01:54:08.883Z,101474.31
2023-03-20T01:56:41.721Z,101506.28
2023-03-20T01:59:14.369Z,101519.16
2023-03-20T02:01:43.571Z,101548.47
2023-03-20T02:04:12.972Z,101563.91
2023-03-20T02:06:41.825Z,101569.22
2023-03-20T02:09:10.966Z,101581.53
2023-03-20T02:11:40.664Z,101590.09
2023-03-20T02:14:09.615Z,101592.94
2023-03-20T02:16:37.436Z,101581.56
2023-03-20T02:19:08.815Z,101593.34
2023-03-20T02:22:14.220Z,101578.41
2023-03-20T02:25:16.450Z,101586.38
2023-03-20T02:27:59.933Z,101582.03
2023-03-20T02:31:05.507Z,101578.63
2023-03-20T02:34:06.256Z,101543.78
2023-03-20T02:37:22.629Z,101546.34
2023-03-20T02:40:01.748Z,101542.66
2023-03-20T02:42:36.348Z,101528.50
2023-03-20T02:45:14.614Z,101494.72
2023-03-20T02:47:50.508Z,101472.50
2023-03-20T02:50:28.371Z,101499.31
2023-03-20T02:53:07.081Z,101506.09
2023-03-20T02:55:42.544Z,101537.97
2023-03-20T02:58:16.680Z,101509.28
2023-03-20T03:00:51.866Z,101482.94
2023-03-20T03:03:25.373Z,101451.94
2023-03-20T03:05:57.084Z,101433.53
2023-03-20T03:08:31.441Z,101422.97
2023-03-20T03:11:04.497Z,101440.41
2023-03-20T03:13:36.230Z,101458.44
2023-03-20T03:16:10.308Z,101451.94
2023-03-20T03:18:41.315Z,101440.25
2023-03-20T03:21:11.409Z,101427.06
2023-03-20T03:23:47.098Z,101462.50
2023-03-20T03:26:20.818Z,101453.63
2023-03-20T03:28:53.771Z,101475.47
2023-03-20T03:31:23.044Z,101458.81
2023-03-20T03:33:53.421Z,101451.09
2023-03-20T03:36:30.241Z,101439.78
2023-03-20T03:39:03.753Z,101451.09
2023-03-20T03:41:35.064Z,101461.31
2023-03-20T03:44:13.028Z,101451.91
2023-03-20T03:46:46.366Z,101448.44
2023-03-20T03:49:18.086Z,101446.66
2023-03-20T03:51:50.243Z,101457.72
2023-03-20T03:54:23.537Z,101432.94
2023-03-20T03:56:53.162Z,101418.75
2023-03-20T03:59:25.977Z,101375.25
2023-03-20T04:01:55.489Z,101353.72
2023-03-20T04:04:25.356Z,101370.19
2023-03-20T04:06:53.190Z,101380.66
2023-03-20T04:09:22.277Z,101367.31
2023-03-20T04:11:53.230Z,101351.81
2023-03-20T04:14:21.783Z,101377.53
2023-03-20T04:16:49.567Z,101381.75
2023-03-20T04:19:17.313Z,101362.34
2023-03-20T04:21:45.701Z,101325.81
2023-03-20T04:24:13.633Z,101309.25
2023-03-20T04:26:43.332Z,101311.34
2023-03-20T04:29:11.147Z,101306.56
2023-03-20T04:31:38.928Z,101285.03
2023-03-20T04:34:07.230Z,101286.22
2023-03-20T04:36:34.967Z,101311.75
2023-03-20T04:39:02.671Z,101296.78
2023-03-20T04:41:30.392Z,101319.25
2023-03-20T04:43:59.504Z,101321.06
2023-03-20T04:46:27.348Z,101300.16
2023-03-20T04:48:55.154Z,101312.16
2023-03-20T04:51:22.906Z,101295.59
2023-03-20T04:53:50.679Z,101294.94
2023-03-20T04:56:18.499Z,101304.25
2023-03-20T04:58:46.203Z,101303.53
2023-03-20T05:01:15.460Z,101272.81
2023-03-20T05:03:43.632Z,101265.38
2023-03-20T05:06:11.423Z,101272.75
2023-03-20T05:08:39.156Z,101275.59
2023-03-20T05:11:07.823Z,101259.06
2023-03-20T05:13:35.778Z,101253.88
2023-03-20T05:16:03.497Z,101257.03
2023-03-20T05:18:32.774Z,101239.63
2023-03-20T05:21:01.246Z,101276.97
2023-03-20T05:23:28.976Z,101309.66
2023-03-20T05:25:56.733Z,101278.75
2023-03-20T05:28:24.453Z,101286.00
2023-03-20T05:30:52.181Z,101296.06
2023-03-20T05:33:19.964Z,101303.00
2023-03-20T05:35:49.110Z,101297.91
2023-03-20T05:38:16.831Z,101284.44
2023-03-20T05:40:44.590Z,101265.72
2023-03-20T05:43:12.311Z,101245.81
2023-03-20T05:45:40.058Z,101276.84
2023-03-20T05:48:08.008Z,101245.50
2023-03-20T05:50:35.774Z,101242.72
2023-03-20T05:53:04.849Z,101226.75
2023-03-20T05:55:33.199Z,101270.28
2023-03-20T05:58:01.141Z,101257.16
2023-03-20T06:00:28.971Z,101243.72
2023-03-20T06:02:57.247Z,101255.09
2023-03-20T06:05:25.040Z,101242.50
2023-03-20T06:07:52.834Z,101266.41
2023-03-20T06:10:22.248Z,101287.91
2023-03-20T06:12:50.462Z,101299.06
2023-03-20T06:15:18.389Z,101326.31
2023-03-20T06:17:46.137Z,101310.75
2023-03-20T06:20:14.423Z,101326.72
2023-03-20T06:22:58.346Z,101339.44
2023-03-20T06:25:27.517Z,101323.19
2023-03-20T06:27:55.295Z,101307.59
2023-03-20T06:30:23.035Z,101341.59
2023-03-20T06:32:50.850Z,101324.03
2023-03-20T06:35:19.180Z,101329.56
2023-03-20T06:37:46.893Z,101352.34
2023-03-20T06:40:14.710Z,101364.41
2023-03-20T06:42:43.798Z,101364.09
2023-03-20T06:45:13.298Z,101361.59
2023-03-20T06:47:41.730Z,101368.88
2023-03-20T06:50:10.815Z,101338.34
2023-03-20T06:52:38.567Z,101329.47
2023-03-20T06:55:07.117Z,101290.16
2023-03-20T06:57:34.990Z,101252.41
2023-03-20T07:00:05.463Z,101252.84
2023-03-20T07:02:33.393Z,101238.13
2023-03-20T07:05:01.179Z,101240.09
2023-03-20T07:07:28.976Z,101231.16
2023-03-20T07:09:56.682Z,101203.00
2023-03-20T07:12:28.471Z,101220.91
2023-03-20T07:14:56.918Z,101215.75
2023-03-20T07:17:26.000Z,101221.84
2023-03-20T07:19:53.895Z,101249.13
2023-03-20T07:22:24.312Z,101237.66
2023-03-20T07:24:52.182Z,101208.16
2023-03-20T07:27:20.245Z,101194.03
2023-03-20T07:29:47.954Z,101183.97
2023-03-20T07:32:16.660Z,101176.31
2023-03-20T07:34:47.533Z,101175.16
2023-03-20T07:37:15.589Z,101148.59
2023-03-20T07:39:43.341Z,101132.13
2023-03-20T07:42:11.094Z,101147.53
2023-03-20T07:44:38.823Z,101139.81
2023-03-20T07:47:07.199Z,101153.22
2023-03-20T07:49:35.462Z,101140.66
2023-03-20T07:52:04.592Z,101142.72
2023-03-20T07:54:32.321Z,101128.50
2023-03-20T07:57:00.021Z,101141.56
2023-03-20T07:59:27.773Z,101154.63
2023-03-20T08:01:55.498Z,101160.59
2023-03-20T08:04:23.392Z,101149.03
2023-03-20T08:06:51.849Z,101154.25
2023-03-20T08:09:21.089Z,101136.16
2023-03-20T08:11:48.869Z,101143.44
2023-03-20T08:14:16.741Z,101143.91
2023-03-20T08:16:44.554Z,101170.84
2023-03-20T08:19:12.665Z,101176.97
2023-03-20T08:21:40.631Z,101172.28
2023-03-20T08:24:08.996Z,101187.25
2023-03-20T08:26:38.278Z,101187.88
2023-03-20T08:29:06.252Z,101180.13
2023-03-20T08:31:34.032Z,101183.44
2023-03-20T08:34:02.110Z,101173.97
2023-03-20T08:36:29.886Z,101148.19
2023-03-20T08:38:57.603Z,101142.53
2023-03-20T08:41:25.353Z,101140.06
2023-03-20T08:43:54.417Z,101161.72
2023-03-20T08:46:22.180Z,101155.19
2023-03-20T08:48:49.916Z,101173.97
2023-03-20T08:51:17.636Z,101211.44
2023-03-20T08:53:45.405Z,101215.75
2023-03-20T08:56:13.168Z,101193.31
2023-03-20T08:58:40.874Z,101184.50
2023-03-20T09:01:11.381Z,101173.03
2023-03-20T09:03:39.188Z,101176.00
2023-03-20T09:06:08.581Z,101189.28
2023-03-20T09:08:36.603Z,101142.69
2023-03-20T09:11:04.793Z,101128.41
2023-03-20T09:13:32.679Z,101136.94
2023-03-20T09:16:00.478Z,101141.16
2023-03-20T09:18:29.712Z,101139.50
2023-03-20T09:20:57.592Z,101128.09
2023-03-20T09:23:25.408Z,101119.75
2023-03-20T09:25:53.142Z,101140.31
2023-03-20T09:28:20.873Z,101157.66
2023-03-20T09:30:48.980Z,101153.66
2023-03-20T09:33:18.515Z,101130.28
2023-03-20T09:35:47.714Z,101129.69
2023-03-20T09:38:15.639Z,101110.13
2023-03-20T09:40:52.372Z,101121.94
2023-03-20T09:43:29.965Z,101141.72
2023-03-20T09:46:08.706Z,101128.19
2023-03-20T09:48:46.430Z,101124.41
2023-03-20T09:51:22.704Z,101115.44
2023-03-20T09:53:59.218Z,101110.59
2023-03-20T09:56:31.006Z,101110.41
2023-03-20T09:59:00.968Z,101114.78
2023-03-20T10:01:34.453Z,101100.53
2023-03-20T10:04:07.971Z,101099.69
2023-03-20T10:06:37.177Z,101111.09
2023-03-20T10:09:16.271Z,101117.91
2023-03-20T10:11:59.894Z,101107.16
2023-03-20T10:14:39.165Z,101123.63
2023-03-20T10:17:19.566Z,101129.19
2023-03-20T10:19:53.457Z,101113.25
2023-03-20T10:22:25.504Z,101096.25
2023-03-20T10:24:59.109Z,101113.69
2023-03-20T10:27:32.592Z,101093.94
2023-03-20T10:30:14.100Z,101102.53
2023-03-20T10:32:49.061Z,101085.38
2023-03-20T10:35:24.843Z,101084.22
2023-03-20T10:38:19.873Z,101081.75
2023-03-20T10:40:48.315Z,101060.97
2023-03-20T10:43:21.312Z,101065.06
2023-03-20T10:45:51.737Z,101048.50
2023-03-20T10:48:24.574Z,101090.69
2023-03-20T10:50:56.555Z,101082.63
2023-03-20T10:53:39.970Z,101092.22
2023-03-20T10:56:11.825Z,101076.69
2023-03-20T10:58:41.093Z,101070.72
2023-03-20T11:01:09.237Z,101061.78
2023-03-20T11:03:39.817Z,101058.16
2023-03-20T11:06:14.802Z,101048.84
2023-03-20T11:08:48.607Z,101035.09
2023-03-20T11:11:23.233Z,101042.47
2023-03-20T11:13:51.127Z,101059.19
2023-03-20T11:16:22.128Z,101051.06
2023-03-20T11:18:52.219Z,101027.19
2023-03-20T11:21:23.449Z,101043.34
2023-03-20T11:23:53.503Z,101034.50
2023-03-20T11:26:33.653Z,101028.22
2023-03-20T11:29:01.657Z,101042.19
2023-03-20T11:31:35.499Z,101030.53
2023-03-20T11:34:12.534Z,101015.06
2023-03-20T11:36:41.355Z,101011.88
2023-03-20T11:39:15.002Z,101006.97
2023-03-20T11:41:47.255Z,101039.31
2023-03-20T11:44:24.840Z,101041.50
2023-03-20T11:46:57.846Z,101053.88
2023-03-20T11:49:27.709Z,101069.31
2023-03-20T11:52:00.805Z,101069.75
2023-03-20T11:54:31.355Z,101069.97
2023-03-20T11:57:01.333Z,101084.25
2023-03-20T11:59:33.138Z,101083.81
2023-03-20T12:02:03.361Z,101096.47
2023-03-20T12:04:33.396Z,101098.19
2023-03-20T12:07:11.204Z,101093.94
2023-03-20T12:09:45.669Z,101089.09
2023-03-20T12:12:22.950Z,101084.16
2023-03-20T12:14:58.028Z,101091.59
2023-03-20T12:17:36.395Z,101082.88
2023-03-20T12:20:13.077Z,101082.97
2023-03-20T12:22:51.043Z,101079.00
2023-03-20T12:25:24.126Z,101075.16
2023-03-20T12:28:03.410Z,101085.97
2023-03-20T12:30:37.479Z,101063.38
2023-03-20T12:33:12.309Z,101034.84
2023-03-20T12:35:45.637Z,101032.03
2023-03-20T12:38:24.293Z,101045.41
2023-03-20T12:41:00.567Z,101047.72
2023-03-20T12:43:35.981Z,101069.22
2023-03-20T12:46:12.393Z,101064.81
2023-03-20T12:48:56.301Z,101071.81
2023-03-20T12:51:36.816Z,101058.63
2023-03-20T12:54:18.863Z,101038.75
2023-03-20T12:57:03.062Z,101024.59
2023-03-20T12:59:39.950Z,101026.72
2023-03-20T13:02:20.670Z,101043.16
2023-03-20T13:05:01.931Z,101040.78
2023-03-20T13:07:45.936Z,101018.72
2023-03-20T13:10:20.711Z,101019.50
2023-03-20T13:13:02.989Z,101016.34
2023-03-20T13:15:42.232Z,101001.78
2023-03-20T13:18:17.606Z,101006.59
2023-03-20T13:20:52.139Z,101000.06
2023-03-20T13:23:24.499Z,100997.81
2023-03-20T13:26:09.694Z,100978.72
2023-03-20T13:28:46.990Z,100987.59
2023-03-20T13:31:26.911Z,100976.22
2023-03-20T13:34:01.648Z,100964.47
2023-03-20T13:36:45.431Z,100959.03
2023-03-20T13:39:17.503Z,100960.47
2023-03-20T13:41:47.691Z,100941.28
2023-03-20T13:44:20.971Z,100930.47
2023-03-20T13:46:52.816Z,100937.88
2023-03-20T13:49:27.056Z,100943.69
2023-03-20T13:52:01.413Z,100931.16
2023-03-20T13:54:42.924Z,100949.13
2023-03-20T13:57:23.599Z,100939.38
2023-03-20T14:00:01.955Z,100923.91
2023-03-20T14:02:36.721Z,100919.53
2023-03-20T14:05:11.526Z,100919.41
2023-03-20T14:07:44.109Z,100935.19
2023-03-20T14:10:38.200Z,100926.81
2023-03-20T14:13:12.889Z,100929.50
2023-03-20T14:15:50.109Z,100918.63
2023-03-20T14:18:19.526Z,100912.91
2023-03-20T14:20:55.401Z,100931.16
2023-03-20T14:23:34.167Z,100949.56
2023-03-20T14:26:05.227Z,100929.81
2023-03-20T14:28:45.674Z,100939.78
2023-03-20T14:31:23.927Z,100943.03
2023-03-20T14:34:00.720Z,100924.88
2023-03-20T14:36:43.592Z,100929.50
2023-03-20T14:39:30.222Z,100917.63
2023-03-20T14:42:05.312Z,100925.44
2023-03-20T14:44:51.511Z,100930.75
2023-03-20T14:47:30.280Z,100922.25
2023-03-20T14:50:04.555Z,100920.44
2023-03-20T14:52:43.888Z,100931.44
2023-03-20T14:55:32.199Z,100921.56
2023-03-20T14:58:04.830Z,100921.00
2023-03-20T15:00:37.083Z,100921.13
2023-03-20T15:03:10.259Z,100936.22
2023-03-20T15:05:40.043Z,100929.16
2023-03-20T15:08:11.161Z,100931.00
2023-03-20T15:10:47.592Z,100923.91
2023-03-20T15:13:16.594Z,100921.66
2023-03-20T15:15:55.143Z,100927.78
2023-03-20T15:18:26.500Z,100982.06
2023-03-20T15:20:56.845Z,101090.72
2023-03-20T15:23:26.037Z,101058.25
2023-03-20T15:25:54.158Z,101018.53
2023-03-20T15:28:25.036Z,101037.22
2023-03-20T15:30:54.841Z,101014.34
2023-03-20T15:33:28.031Z,101009.34
2023-03-20T15:35:56.204Z,101011.38
2023-03-20T15:38:30.969Z,101013.56
2023-03-20T15:40:58.701Z,100999.59
2023-03-20T15:43:27.947Z,101029.28
2023-03-20T15:46:14.260Z,101020.88
2023-03-20T15:48:49.936Z,100981.84
2023-03-20T15:51:18.974Z,100993.81
2023-03-20T15:53:49.463Z,100986.63
2023-03-20T15:56:20.012Z,100993.53
2023-03-20T15:58:52.257Z,100988.88
2023-03-20T16:01:22.260Z,100996.81
2023-03-20T16:03:52.759Z,100969.47
2023-03-20T16:06:22.708Z,100976.22
2023-03-20T16:08:59.450Z,100968.09
2023-03-20T16:11:37.669Z,100983.06
2023-03-20T16:14:07.076Z,100994.69
2023-03-20T16:16:37.698Z,100992.66
2023-03-20T16:19:09.726Z,101025.69
2023-03-20T16:21:40.786Z,101001.28
2023-03-20T16:24:15.695Z,101009.72
2023-03-20T16:26:46.842Z,101011.00
2023-03-20T16:29:15.906Z,101004.84
2023-03-20T16:31:49.567Z,101011.56
2023-03-20T16:34:22.762Z,101039.91
2023-03-20T16:36:54.825Z,101048.09
2023-03-20T16:39:26.009Z,101056.03
2023-03-20T16:42:11.877Z,101048.81
2023-03-20T16:44:42.734Z,101045.84
2023-03-20T16:47:18.373Z,101050.03
2023-03-20T16:50:10.504Z,101026.75
2023-03-20T16:52:41.142Z,101024.63
2023-03-20T16:55:16.999Z,101006.72
2023-03-20T16:57:49.107Z,101004.72
2023-03-20T17:00:23.821Z,101006.06
2023-03-20T17:02:53.714Z,100984.91
2023-03-20T17:05:23.343Z,100974.31
2023-03-20T17:07:52.193Z,101019.06
2023-03-20T17:10:24.166Z,100997.09
2023-03-20T17:12:52.889Z,100995.50
2023-03-20T17:15:23.191Z,100981.19
2023-03-20T17:17:51.006Z,100975.00
2023-03-20T17:20:21.328Z,100975.06
2023-03-20T17:22:51.165Z,100988.94
2023-03-20T17:25:19.101Z,100987.16
2023-03-20T17:27:46.818Z,100978.25
2023-03-20T17:30:18.597Z,100985.28
2023-03-20T17:32:46.421Z,100973.25
2023-03-20T17:35:14.682Z,100962.91
2023-03-20T17:37:42.742Z,100970.69
2023-03-20T17:40:18.741Z,100969.63
2023-03-20T17:42:46.903Z,100970.19
2023-03-20T17:45:15.649Z,100968.16
2023-03-20T17:47:44.926Z,100960.44
2023-03-20T17:50:19.157Z,100972.56
2023-03-20T17:52:47.125Z,100974.69
2023-03-20T17:55:16.347Z,100964.34
2023-03-20T17:57:44.389Z,100954.63
2023-03-20T18:00:18.012Z,100955.47
2023-03-20T18:02:45.860Z,100957.13
2023-03-20T18:05:13.678Z,100957.78
2023-03-20T18:07:41.781Z,100960.66
2023-03-20T18:10:21.867Z,100966.03
2023-03-20T18:12:49.617Z,100968.94
2023-03-20T18:15:17.395Z,100965.66
2023-03-20T18:17:46.609Z,100966.66
2023-03-20T18:20:25.258Z,100962.25
2023-03-20T18:22:53.115Z,100959.19
2023-03-20T18:25:23.290Z,100974.44
2023-03-20T18:27:51.180Z,100973.38
2023-03-20T18:30:21.277Z,100979.00
2023-03-20T18:32:50.765Z,100981.47
2023-03-20T18:35:18.689Z,100979.38
2023-03-20T18:37:46.414Z,100980.94
2023-03-20T18:40:19.238Z,100984.56
2023-03-20T18:42:48.766Z,100983.00
2023-03-20T18:45:16.967Z,100985.56
2023-03-20T18:47:45.432Z,100982.22
2023-03-20T18:50:24.765Z,100991.00
2023-03-20T18:52:52.880Z,100983.34
2023-03-20T18:55:21.626Z,100982.22
2023-03-20T18:57:50.829Z,100981.03
2023-03-20T19:00:23.117Z,100987.03
2023-03-20T19:02:52.068Z,100980.47
2023-03-20T19:05:20.263Z,100999.56
2023-03-20T19:07:48.943Z,101006.44
2023-03-20T19:10:27.951Z,101011.66
2023-03-20T19:12:57.963Z,101054.06
2023-03-20T19:15:27.790Z,101093.91
2023-03-20T19:17:55.867Z,101103.03
2023-03-20T19:20:34.248Z,101112.13
2023-03-20T19:23:03.590Z,101154.13
2023-03-20T19:25:31.742Z,101134.34
2023-03-20T19:28:01.781Z,101113.56
2023-03-20T19:30:32.151Z,101098.34
2023-03-20T19:33:00.558Z,101108.34
2023-03-20T19:35:54.388Z,101096.25
2023-03-20T19:38:18.832Z,101114.19
2023-03-20T19:40:48.861Z,101115.88
2023-03-20T19:43:17.988Z,101106.59
2023-03-20T19:45:46.366Z,101109.97
2023-03-20T19:48:16.587Z,101102.25
2023-03-20T19:50:46.690Z,101087.84
2023-03-20T19:53:16.534Z,101065.13
2023-03-20T19:55:45.655Z,101060.44
2023-03-20T19:58:13.580Z,101067.91
2023-03-20T20:01:00.815Z,101061.16
2023-03-20T20:03:28.868Z,101064.81
2023-03-20T20:05:56.715Z,101076.38
2023-03-20T20:08:42.137Z,101090.41
2023-03-20T20:11:14.473Z,101112.47
2023-03-20T20:14:03.776Z,101116.94
2023-03-20T20:16:31.959Z,101115.22
2023-03-20T20:18:59.746Z,101094.00
2023-03-20T20:24:16.249Z,101155.91
2023-03-20T20:26:53.677Z,101192.75
2023-03-20T20:29:24.483Z,101193.28
2023-03-20T20:31:53.763Z,101201.75
2023-03-20T20:39:58.068Z,101203.88
2023-03-20T20:42:26.072Z,101208.47
2023-03-20T20:44:53.789Z,101226.94
2023-03-20T20:47:22.900Z,101237.47
2023-03-20T20:49:50.629Z,101246.97
2023-03-20T20:52:18.578Z,101274.22
2023-03-20T20:54:46.427Z,101287.22
2023-03-20T20:57:14.355Z,101278.28
2023-03-20T20:59:42.442Z,101278.91
2023-03-20T21:02:11.975Z,101304.88
2023-03-20T21:04:42.095Z,101300.88
2023-03-20T21:07:12.216Z,101295.34
2023-03-20T21:09:40.796Z,101296.56
2023-03-20T21:12:10.354Z,101299.22
2023-03-20T21:14:38.771Z,101323.13
2023-03-20T21:17:07.673Z,101331.88
2023-03-20T21:19:38.158Z,101330.56
2023-03-20T21:22:09.093Z,101342.22
2023-03-20T21:24:37.434Z,101341.69
2023-03-20T21:27:08.010Z,101363.00
2023-03-20T21:29:36.011Z,101382.22
2023-03-20T21:32:03.838Z,101368.66
2023-03-20T21:34:31.853Z,101353.41
2023-03-20T21:37:15.265Z,101347.97
2023-03-20T21:39:52.269Z,101361.22
2023-03-20T21:42:20.628Z,101347.69
2023-03-20T21:50:49.444Z,101315.03
2023-03-20T21:54:04.061Z,101303.69
2023-03-20T22:02:12.335Z,101340.06
2023-03-20T22:07:52.015Z,101355.69
2023-03-20T22:10:45.346Z,101338.47
2023-03-20T22:16:17.160Z,101327.56
2023-03-20T22:30:18.827Z,101270.63
2023-03-20T22:38:55.138Z,101230.69
2023-03-20T22:41:49.060Z,101235.19
2023-03-20T22:46:45.849Z,101255.16
2023-03-20T22:49:13.100Z,101227.97
2023-03-20T22:51:47.836Z,101222.47
2023-03-20T22:54:25.382Z,101238.44
2023-03-20T22:56:53.109Z,101226.81
2023-03-20T22:59:20.824Z,101223.09
2023-03-20T23:01:49.960Z,101205.38
2023-03-20T23:04:17.701Z,101214.81
2023-03-20T23:06:45.503Z,101218.88
2023-03-20T23:09:15.829Z,101221.69
2023-03-20T23:11:44.141Z,101238.44
2023-03-20T23:14:20.463Z,101219.91
2023-03-20T23:16:51.447Z,101229.44
2023-03-20T23:19:19.355Z,101234.91
2023-03-20T23:21:47.075Z,101228.66
2023-03-20T23:24:14.831Z,101236.22
2023-03-20T23:26:42.573Z,101228.53
2023-03-20T23:29:10.302Z,101204.22
2023-03-20T23:31:38.158Z,101198.66
2023-03-20T23:34:07.362Z,101198.78
2023-03-20T23:36:37.298Z,101203.63
2023-03-20T23:39:05.953Z,101199.06
2023-03-20T23:42:04.713Z,101199.63
2023-03-20T23:44:21.687Z,101202.13
2023-03-20T23:46:49.459Z,101196.97
2023-03-20T23:49:18.821Z,101201.09
2023-03-20T23:51:47.037Z,101213.69
2023-03-20T23:54:14.952Z,101220.28
2023-03-20T23:56:42.734Z,101229.72
2023-03-20T23:59:21.114Z,101241.03
